createdAt,value
2019-01-25T00:01:55.194Z,6.44
2019-01-25T00:04:21.350Z,6.41
2019-01-25T00:06:47.544Z,6.56
2019-01-25T00:09:13.694Z,6.91
2019-01-25T00:11:39.849Z,7.03
2019-01-25T00:14:06.032Z,7.18
2019-01-25T00:16:32.194Z,7.01
2019-01-25T00:18:58.344Z,6.97
2019-01-25T00:21:24.637Z,7.02
2019-01-25T00:23:50.987Z,6.95
2019-01-25T00:26:17.514Z,6.87
2019-01-25T00:28:43.753Z,6.74
2019-01-25T00:31:09.951Z,7.08
2019-01-25T00:33:36.114Z,7.10
2019-01-25T00:36:02.404Z,6.96
2019-01-25T00:38:28.672Z,6.95
2019-01-25T00:40:54.856Z,6.98
2019-01-25T00:43:21.044Z,7.19
2019-01-25T00:45:47.198Z,7.42
2019-01-25T00:48:13.366Z,7.26
2019-01-25T00:50:39.548Z,7.18
2019-01-25T00:53:05.710Z,7.03
2019-01-25T00:55:31.856Z,7.11
2019-01-25T00:57:58.143Z,7.39
2019-01-25T01:00:25.795Z,7.52
2019-01-25T01:02:52.248Z,7.28
2019-01-25T01:05:19.728Z,7.15
2019-01-25T01:07:46.580Z,7.08
2019-01-25T01:10:14.219Z,7.14
2019-01-25T01:12:40.719Z,7.23
2019-01-25T01:15:10.282Z,7.09
2019-01-25T01:17:36.548Z,6.78
2019-01-25T01:20:06.441Z,6.64
2019-01-25T01:22:32.591Z,7.11
2019-01-25T01:24:58.747Z,7.02
2019-01-25T01:27:24.939Z,6.68
2019-01-25T01:29:51.097Z,6.54
2019-01-25T01:32:17.245Z,6.48
2019-01-25T01:34:43.526Z,6.51
2019-01-25T01:37:09.814Z,6.70
2019-01-25T01:39:35.935Z,7.03
2019-01-25T01:42:02.354Z,7.20
2019-01-25T01:44:28.510Z,7.27
2019-01-25T01:46:54.663Z,7.04
2019-01-25T01:49:20.843Z,7.09
2019-01-25T01:51:47.005Z,7.25
2019-01-25T01:54:13.158Z,7.51
2019-01-25T01:56:39.348Z,7.21
2019-01-25T01:59:05.509Z,7.04
2019-01-25T02:01:31.652Z,6.85
2019-01-25T02:03:57.846Z,6.79
2019-01-25T02:06:23.991Z,6.45
2019-01-25T02:08:50.139Z,6.70
2019-01-25T02:11:16.323Z,6.91
2019-01-25T02:13:42.475Z,7.00
2019-01-25T02:16:08.638Z,7.01
2019-01-25T02:18:34.822Z,6.71
2019-01-25T02:21:01.081Z,6.70
2019-01-25T02:23:27.218Z,6.96
2019-01-25T02:25:53.403Z,6.75
2019-01-25T02:28:19.562Z,6.52
2019-01-25T02:30:45.718Z,6.58
2019-01-25T02:33:11.910Z,6.57
2019-01-25T02:35:38.066Z,6.67
2019-01-25T02:38:04.225Z,6.22
2019-01-25T02:40:38.597Z,6.58
2019-01-25T02:42:58.513Z,6.82
2019-01-25T02:45:24.660Z,6.57
2019-01-25T02:47:50.843Z,6.50
2019-01-25T02:50:18.598Z,6.05
2019-01-25T02:52:44.760Z,6.24
2019-01-25T02:55:12.710Z,6.38
2019-01-25T02:57:38.867Z,6.52
2019-01-25T03:00:11.446Z,6.61
2019-01-25T03:02:37.644Z,6.64
2019-01-25T03:05:06.725Z,6.68
2019-01-25T03:07:32.972Z,6.61
2019-01-25T03:09:59.168Z,6.59
2019-01-25T03:12:25.326Z,6.75
2019-01-25T03:14:51.487Z,6.72
2019-01-25T03:17:17.662Z,6.93
2019-01-25T03:19:43.810Z,7.06
2019-01-25T03:22:09.957Z,7.08
2019-01-25T03:24:36.161Z,6.58
2019-01-25T03:27:02.523Z,7.05
2019-01-25T03:29:28.677Z,7.14
2019-01-25T03:31:54.885Z,7.21
2019-01-25T03:34:21.127Z,7.08
2019-01-25T03:36:47.285Z,7.21
2019-01-25T03:39:13.569Z,7.17
2019-01-25T03:41:39.718Z,7.17
2019-01-25T03:44:05.883Z,7.07
2019-01-25T03:46:32.064Z,7.11
2019-01-25T03:48:58.319Z,7.26
2019-01-25T03:51:24.482Z,7.46
2019-01-25T03:53:50.759Z,7.52
2019-01-25T03:56:17.015Z,7.24
2019-01-25T03:58:43.169Z,7.15
2019-01-25T04:01:09.346Z,7.21
2019-01-25T04:03:35.502Z,7.48
2019-01-25T04:06:01.655Z,7.42
2019-01-25T04:08:27.843Z,7.26
2019-01-25T04:10:53.999Z,7.32
2019-01-25T04:13:20.148Z,7.36
2019-01-25T04:15:46.331Z,7.48
2019-01-25T04:18:12.489Z,7.74
2019-01-25T04:20:38.642Z,7.78
2019-01-25T04:23:04.828Z,7.71
2019-01-25T04:25:30.981Z,7.43
2019-01-25T04:27:57.138Z,7.42
2019-01-25T04:30:26.224Z,7.58
2019-01-25T04:32:52.617Z,7.70
2019-01-25T04:35:18.749Z,7.60
2019-01-25T04:37:44.925Z,7.59
2019-01-25T04:40:13.277Z,7.77
2019-01-25T04:42:39.434Z,7.74
2019-01-25T04:45:09.075Z,7.24
2019-01-25T04:47:35.239Z,7.15
2019-01-25T04:50:01.397Z,6.88
2019-01-25T04:52:27.693Z,7.18
2019-01-25T04:54:53.849Z,7.28
2019-01-25T04:57:20.012Z,7.06
2019-01-25T04:59:46.307Z,6.95
2019-01-25T05:02:12.554Z,7.26
2019-01-25T05:04:38.824Z,6.92
2019-01-25T05:07:05.201Z,6.66
2019-01-25T05:09:34.956Z,6.60
2019-01-25T05:12:01.113Z,6.99
2019-01-25T05:14:30.807Z,7.08
2019-01-25T05:16:56.965Z,6.17
2019-01-25T05:19:23.119Z,6.15
2019-01-25T05:21:49.325Z,6.53
2019-01-25T05:24:15.477Z,6.60
2019-01-25T05:26:41.625Z,6.79
2019-01-25T05:29:07.806Z,6.09
2019-01-25T05:31:34.070Z,6.17
2019-01-25T05:34:00.227Z,6.07
2019-01-25T05:36:26.417Z,6.23
2019-01-25T05:38:52.570Z,5.90
2019-01-25T05:41:18.717Z,6.49
2019-01-25T05:43:45.013Z,6.34
2019-01-25T05:46:11.330Z,6.36
2019-01-25T05:48:37.647Z,6.43
2019-01-25T05:51:03.911Z,5.86
2019-01-25T05:53:30.059Z,6.07
2019-01-25T05:55:56.213Z,6.18
2019-01-25T05:58:22.501Z,6.26
2019-01-25T06:00:48.761Z,6.27
2019-01-25T06:03:15.038Z,6.06
2019-01-25T06:05:41.228Z,6.04
2019-01-25T06:08:28.281Z,6.14
2019-01-25T06:10:54.469Z,6.25
2019-01-25T06:13:20.633Z,6.66
2019-01-25T06:15:46.899Z,6.62
2019-01-25T06:18:13.091Z,6.32
2019-01-25T06:20:39.361Z,6.11
2019-01-25T06:23:05.507Z,6.02
2019-01-25T06:25:31.689Z,6.11
2019-01-25T06:27:58.208Z,6.21
2019-01-25T06:30:24.360Z,6.31
2019-01-25T06:32:50.659Z,6.02
2019-01-25T06:35:16.812Z,6.16
2019-01-25T06:37:42.965Z,6.31
2019-01-25T06:40:11.160Z,6.32
2019-01-25T06:42:37.325Z,6.09
2019-01-25T06:45:10.292Z,5.98
2019-01-25T06:47:36.545Z,6.46
2019-01-25T06:50:08.098Z,6.41
2019-01-25T06:52:34.268Z,6.69
2019-01-25T06:55:00.473Z,6.10
2019-01-25T06:57:28.530Z,6.30
2019-01-25T06:59:54.696Z,5.97
2019-01-25T07:02:21.489Z,6.05
2019-01-25T07:04:47.644Z,6.04
2019-01-25T07:07:15.705Z,5.53
2019-01-25T07:09:41.890Z,5.98
2019-01-25T07:12:08.046Z,6.60
2019-01-25T07:14:34.200Z,6.18
2019-01-25T07:17:00.386Z,5.74
2019-01-25T07:19:26.538Z,6.18
2019-01-25T07:21:52.696Z,5.96
2019-01-25T07:24:18.986Z,5.56
2019-01-25T07:26:45.160Z,5.94
2019-01-25T07:29:11.430Z,5.96
2019-01-25T07:31:37.602Z,5.88
2019-01-25T07:34:03.759Z,5.88
2019-01-25T07:36:29.958Z,6.45
2019-01-25T07:38:56.341Z,6.50
2019-01-25T07:41:22.651Z,6.09
2019-01-25T07:43:48.824Z,6.35
2019-01-25T07:46:15.295Z,6.64
2019-01-25T07:48:42.465Z,6.76
2019-01-25T07:51:08.629Z,6.97
2019-01-25T07:53:34.840Z,6.26
2019-01-25T07:56:00.985Z,6.92
2019-01-25T07:58:27.133Z,7.31
2019-01-25T08:00:53.468Z,7.46
2019-01-25T08:03:19.805Z,7.58
2019-01-25T08:05:45.940Z,7.33
2019-01-25T08:08:12.242Z,7.67
2019-01-25T08:10:38.680Z,7.83
2019-01-25T08:13:04.968Z,8.10
2019-01-25T08:15:31.257Z,8.16
2019-01-25T08:17:57.409Z,7.85
2019-01-25T08:20:23.587Z,7.64
2019-01-25T08:22:50.104Z,7.26
2019-01-25T08:25:16.561Z,6.71
2019-01-25T08:27:42.884Z,7.17
2019-01-25T08:30:15.536Z,7.67
2019-01-25T08:32:41.710Z,7.93
2019-01-25T08:35:09.889Z,8.21
2019-01-25T08:37:36.144Z,7.70
2019-01-25T08:40:03.825Z,7.52
2019-01-25T08:42:30.057Z,7.95
2019-01-25T08:44:56.256Z,8.00
2019-01-25T08:47:22.402Z,8.20
2019-01-25T08:49:49.027Z,7.91
2019-01-25T08:52:15.347Z,7.94
2019-01-25T08:54:41.566Z,7.51
2019-01-25T08:57:07.711Z,7.16
2019-01-25T08:59:33.973Z,7.22
2019-01-25T09:02:00.162Z,7.41
2019-01-25T09:04:26.417Z,7.68
2019-01-25T09:06:52.706Z,7.51
2019-01-25T09:09:18.859Z,6.83
2019-01-25T09:11:45.013Z,6.79
2019-01-25T09:14:11.302Z,7.03
2019-01-25T09:16:37.453Z,7.36
2019-01-25T09:19:03.710Z,7.50
2019-01-25T09:21:29.905Z,7.24
2019-01-25T09:23:56.056Z,6.84
2019-01-25T09:26:22.208Z,6.73
2019-01-25T09:28:48.450Z,7.21
2019-01-25T09:31:14.622Z,7.48
2019-01-25T09:33:40.774Z,6.85
2019-01-25T09:36:06.975Z,6.99
2019-01-25T09:38:34.193Z,7.47
2019-01-25T09:41:00.581Z,7.83
2019-01-25T09:43:26.781Z,8.18
2019-01-25T09:45:52.930Z,8.35
2019-01-25T09:48:19.098Z,7.98
2019-01-25T09:50:52.530Z,7.43
2019-01-25T09:53:13.412Z,7.27
2019-01-25T09:55:39.578Z,7.28
2019-01-25T09:58:11.990Z,7.35
2019-01-25T10:00:56.807Z,7.04
2019-01-25T10:03:23.103Z,7.32
2019-01-25T10:05:49.261Z,7.03
2019-01-25T10:08:15.527Z,6.69
2019-01-25T10:10:41.816Z,7.05
2019-01-25T10:13:07.976Z,6.89
2019-01-25T10:15:34.243Z,7.57
2019-01-25T10:18:00.468Z,7.58
2019-01-25T10:20:26.625Z,7.45
2019-01-25T10:22:52.888Z,7.21
2019-01-25T10:25:19.077Z,7.22
2019-01-25T10:27:45.234Z,6.74
2019-01-25T10:30:15.113Z,6.87
2019-01-25T10:32:41.398Z,7.05
2019-01-25T10:35:09.457Z,6.98
2019-01-25T10:37:35.625Z,6.98
2019-01-25T10:40:02.625Z,7.38
2019-01-25T10:42:28.896Z,7.38
2019-01-25T10:44:55.161Z,7.27
2019-01-25T10:47:21.390Z,7.05
2019-01-25T10:49:47.622Z,8.04
2019-01-25T10:52:14.736Z,7.72
2019-01-25T10:54:41.019Z,8.11
2019-01-25T10:57:07.174Z,7.70
2019-01-25T10:59:33.331Z,7.60
2019-01-25T11:01:59.546Z,7.92
2019-01-25T11:04:25.803Z,7.76
2019-01-25T11:06:51.959Z,7.65
2019-01-25T11:09:18.153Z,7.19
2019-01-25T11:11:44.309Z,7.05
2019-01-25T11:14:10.564Z,7.24
2019-01-25T11:16:36.843Z,6.98
2019-01-25T11:19:03.046Z,7.44
2019-01-25T11:21:29.198Z,7.03
2019-01-25T11:23:55.398Z,7.53
2019-01-25T11:26:21.645Z,7.67
2019-01-25T11:28:47.795Z,8.16
2019-01-25T11:31:13.985Z,8.62
2019-01-25T11:33:40.239Z,8.74
2019-01-25T11:36:06.403Z,9.07
2019-01-25T11:38:32.599Z,9.33
2019-01-25T11:40:58.868Z,9.86
2019-01-25T11:43:26.267Z,10.17
2019-01-25T11:45:54.367Z,10.42
2019-01-25T11:48:20.626Z,10.73
2019-01-25T11:50:46.800Z,11.05
2019-01-25T11:53:13.016Z,11.42
2019-01-25T11:55:39.183Z,11.56
2019-01-25T11:58:05.445Z,11.71
2019-01-25T12:00:32.728Z,11.89
2019-01-25T12:02:58.885Z,11.72
2019-01-25T12:05:25.140Z,11.46
2019-01-25T12:07:52.543Z,11.47
2019-01-25T12:10:21.223Z,11.87
2019-01-25T12:12:47.412Z,12.12
2019-01-25T12:15:15.470Z,11.78
2019-01-25T12:17:41.724Z,12.08
2019-01-25T12:20:11.719Z,12.36
2019-01-25T12:22:38.043Z,12.45
2019-01-25T12:25:07.367Z,12.43
2019-01-25T12:27:33.518Z,12.37
2019-01-25T12:29:59.786Z,12.46
2019-01-25T12:32:25.952Z,12.52
2019-01-25T12:34:52.111Z,12.20
2019-01-25T12:37:18.407Z,12.28
2019-01-25T12:39:44.561Z,12.41
2019-01-25T12:42:10.712Z,12.43
2019-01-25T12:44:37.002Z,12.14
2019-01-25T12:47:03.157Z,11.94
2019-01-25T12:49:29.320Z,11.47
2019-01-25T12:51:55.620Z,11.89
2019-01-25T12:54:21.833Z,12.13
2019-01-25T12:56:47.991Z,12.19
2019-01-25T12:59:14.182Z,12.07
2019-01-25T13:01:40.559Z,11.84
2019-01-25T13:04:06.731Z,12.17
2019-01-25T13:06:32.916Z,12.29
2019-01-25T13:08:59.085Z,12.35
2019-01-25T13:11:25.293Z,12.72
2019-01-25T13:13:53.299Z,12.66
2019-01-25T13:16:19.468Z,12.63
2019-01-25T13:18:45.632Z,12.69
2019-01-25T13:21:13.732Z,12.88
2019-01-25T13:23:39.888Z,12.94
2019-01-25T13:26:06.090Z,12.01
2019-01-25T13:28:32.444Z,12.25
2019-01-25T13:30:58.706Z,12.45
2019-01-25T13:33:24.870Z,12.28
2019-01-25T13:35:51.070Z,12.08
2019-01-25T13:38:17.222Z,11.99
2019-01-25T13:40:43.787Z,11.92
2019-01-25T13:43:10.112Z,11.99
2019-01-25T13:45:36.268Z,12.08
2019-01-25T13:48:04.240Z,11.93
2019-01-25T13:50:30.435Z,11.54
2019-01-25T13:52:56.600Z,11.75
2019-01-25T13:55:27.075Z,11.40
2019-01-25T13:57:53.267Z,11.33
2019-01-25T14:00:51.026Z,11.50
2019-01-25T14:03:17.223Z,11.26
2019-01-25T14:05:43.378Z,10.81
2019-01-25T14:08:09.662Z,10.73
2019-01-25T14:10:36.283Z,10.33
2019-01-25T14:13:04.750Z,10.22
2019-01-25T14:15:30.918Z,10.46
2019-01-25T14:17:57.246Z,10.69
2019-01-25T14:20:29.341Z,10.70
2019-01-25T14:22:55.518Z,10.57
2019-01-25T14:25:21.924Z,10.77
2019-01-25T14:27:49.408Z,10.58
2019-01-25T14:30:30.742Z,9.80
2019-01-25T14:32:56.926Z,10.02
2019-01-25T14:35:23.084Z,10.36
2019-01-25T14:37:49.360Z,10.24
2019-01-25T14:40:15.518Z,9.17
2019-01-25T14:42:41.783Z,8.53
2019-01-25T14:45:11.476Z,7.99
2019-01-25T14:47:37.651Z,8.73
2019-01-25T14:50:07.513Z,8.42
2019-01-25T14:52:33.721Z,8.96
2019-01-25T14:54:59.875Z,9.22
2019-01-25T14:57:26.066Z,9.17
2019-01-25T14:59:52.378Z,9.53
2019-01-25T15:02:18.546Z,9.84
2019-01-25T15:04:44.727Z,9.89
2019-01-25T15:07:10.892Z,9.95
2019-01-25T15:09:38.114Z,10.04
2019-01-25T15:12:04.508Z,9.64
2019-01-25T15:14:30.694Z,9.72
2019-01-25T15:16:56.910Z,9.78
2019-01-25T15:19:23.027Z,9.94
2019-01-25T15:21:50.833Z,10.10
2019-01-25T15:24:17.287Z,10.17
2019-01-25T15:26:43.972Z,10.28
2019-01-25T15:29:10.281Z,10.30
2019-01-25T15:31:36.511Z,10.34
2019-01-25T15:34:02.839Z,10.08
2019-01-25T15:36:29.032Z,10.37
2019-01-25T15:38:55.294Z,10.33
2019-01-25T15:41:21.628Z,10.25
2019-01-25T15:43:47.820Z,9.50
2019-01-25T15:46:13.980Z,9.75
2019-01-25T15:48:40.142Z,9.82
2019-01-25T15:51:06.342Z,9.20
2019-01-25T15:53:32.504Z,8.90
2019-01-25T15:55:58.670Z,8.55
2019-01-25T15:58:24.898Z,8.43
2019-01-25T16:00:51.065Z,8.24
2019-01-25T16:03:17.329Z,8.46
2019-01-25T16:05:43.522Z,8.42
2019-01-25T16:08:09.782Z,8.55
2019-01-25T16:10:35.937Z,8.60
2019-01-25T16:13:02.127Z,8.54
2019-01-25T16:15:28.575Z,8.55
2019-01-25T16:17:54.731Z,8.59
2019-01-25T16:20:21.419Z,8.65
2019-01-25T16:22:49.718Z,8.83
2019-01-25T16:25:27.250Z,8.69
2019-01-25T16:27:53.505Z,8.76
2019-01-25T16:30:22.463Z,8.85
2019-01-25T16:32:48.764Z,8.91
2019-01-25T16:35:15.425Z,8.79
2019-01-25T16:37:41.580Z,8.75
2019-01-25T16:40:11.071Z,9.03
2019-01-25T16:42:37.247Z,8.72
2019-01-25T16:45:07.010Z,9.15
2019-01-25T16:47:33.296Z,9.36
2019-01-25T16:49:59.555Z,9.47
2019-01-25T16:52:25.710Z,9.49
2019-01-25T16:54:51.911Z,9.59
2019-01-25T16:57:18.076Z,9.58
2019-01-25T16:59:44.237Z,9.64
2019-01-25T17:02:10.420Z,9.66
2019-01-25T17:04:36.683Z,9.59
2019-01-25T17:07:02.938Z,9.58
2019-01-25T17:09:29.140Z,9.63
2019-01-25T17:11:55.392Z,9.37
2019-01-25T17:14:21.672Z,9.64
2019-01-25T17:16:48.034Z,9.76
2019-01-25T17:19:16.017Z,9.91
2019-01-25T17:21:42.172Z,9.56
2019-01-25T17:24:08.368Z,9.63
2019-01-25T17:26:34.524Z,9.75
2019-01-25T17:29:00.687Z,9.52
2019-01-25T17:31:26.902Z,9.26
2019-01-25T17:33:53.166Z,9.68
2019-01-25T17:36:19.322Z,9.75
2019-01-25T17:38:45.525Z,9.63
2019-01-25T17:41:11.781Z,9.83
2019-01-25T17:43:37.941Z,9.98
2019-01-25T17:46:04.233Z,9.77
2019-01-25T17:48:30.390Z,9.86
2019-01-25T17:50:56.548Z,9.98
2019-01-25T17:53:22.741Z,10.13
2019-01-25T17:55:49.003Z,9.91
2019-01-25T17:58:15.362Z,10.06
2019-01-25T18:00:43.650Z,10.12
2019-01-25T18:03:09.788Z,10.22
2019-01-25T18:05:36.044Z,10.20
2019-01-25T18:08:02.343Z,10.52
2019-01-25T18:10:28.606Z,10.67
2019-01-25T18:12:54.784Z,10.61
2019-01-25T18:15:21.080Z,10.54
2019-01-25T18:17:47.331Z,10.37
2019-01-25T18:20:16.196Z,10.70
2019-01-25T18:22:42.494Z,10.91
2019-01-25T18:25:11.787Z,10.75
2019-01-25T18:27:41.373Z,10.74
2019-01-25T18:30:34.281Z,10.76
2019-01-25T18:33:02.821Z,10.95
2019-01-25T18:35:29.015Z,11.26
2019-01-25T18:37:55.191Z,10.74
2019-01-25T18:40:23.370Z,11.12
2019-01-25T18:42:53.829Z,10.59
2019-01-25T18:45:21.907Z,10.84
2019-01-25T18:47:48.128Z,11.07
2019-01-25T18:50:15.083Z,10.98
2019-01-25T18:52:41.333Z,11.02
2019-01-25T18:55:13.708Z,11.14
2019-01-25T18:57:41.778Z,10.72
2019-01-25T19:00:14.459Z,10.88
2019-01-25T19:02:40.805Z,10.84
2019-01-25T19:05:08.763Z,11.17
2019-01-25T19:07:34.950Z,11.14
2019-01-25T19:10:02.524Z,11.29
2019-01-25T19:12:28.684Z,11.22
2019-01-25T19:14:54.884Z,11.10
2019-01-25T19:17:21.056Z,11.36
2019-01-25T19:19:47.312Z,11.07
2019-01-25T19:22:13.615Z,11.09
2019-01-25T19:24:39.766Z,10.96
2019-01-25T19:27:06.048Z,10.91
2019-01-25T19:29:32.236Z,11.15
2019-01-25T19:31:58.391Z,11.22
2019-01-25T19:34:24.767Z,11.26
2019-01-25T19:36:54.209Z,11.20
2019-01-25T19:39:20.382Z,11.18
2019-01-25T19:41:46.540Z,11.34
2019-01-25T19:44:13.227Z,11.31
2019-01-25T19:46:39.435Z,11.19
2019-01-25T19:49:05.588Z,11.16
2019-01-25T19:51:31.772Z,11.43
2019-01-25T19:53:57.927Z,11.61
2019-01-25T19:56:24.078Z,11.63
2019-01-25T19:58:50.319Z,11.53
2019-01-25T20:01:16.677Z,11.57
2019-01-25T20:03:43.686Z,11.76
2019-01-25T20:06:09.987Z,11.86
2019-01-25T20:08:36.251Z,11.88
2019-01-25T20:11:02.399Z,11.88
2019-01-25T20:13:28.612Z,11.72
2019-01-25T20:15:54.877Z,11.52
2019-01-25T20:18:21.036Z,11.27
2019-01-25T20:20:47.361Z,11.63
2019-01-25T20:23:13.519Z,11.56
2019-01-25T20:25:39.670Z,11.07
2019-01-25T20:28:08.058Z,11.22
2019-01-25T20:30:37.709Z,11.59
2019-01-25T20:33:04.369Z,11.75
2019-01-25T20:35:33.062Z,11.27
2019-01-25T20:37:59.341Z,11.27
2019-01-25T20:40:25.509Z,11.43
2019-01-25T20:42:51.708Z,11.62
2019-01-25T20:45:27.267Z,11.41
2019-01-25T20:47:51.913Z,11.57
2019-01-25T20:50:20.919Z,11.47
2019-01-25T20:52:47.071Z,11.69
2019-01-25T20:55:21.185Z,11.67
2019-01-25T20:57:47.464Z,11.77
2019-01-25T21:00:17.081Z,11.71
2019-01-25T21:02:43.463Z,11.77
2019-01-25T21:05:09.747Z,11.65
2019-01-25T21:07:35.923Z,11.72
2019-01-25T21:10:03.803Z,11.75
2019-01-25T21:12:30.018Z,11.80
2019-01-25T21:14:56.186Z,11.83
2019-01-25T21:17:22.348Z,11.76
2019-01-25T21:19:48.638Z,11.76
2019-01-25T21:22:14.794Z,11.85
2019-01-25T21:24:41.051Z,11.89
2019-01-25T21:27:07.241Z,11.82
2019-01-25T21:29:34.260Z,11.90
2019-01-25T21:32:00.534Z,11.59
2019-01-25T21:34:27.093Z,11.72
2019-01-25T21:36:53.251Z,11.55
2019-01-25T21:39:19.405Z,11.44
2019-01-25T21:41:45.610Z,11.38
2019-01-25T21:44:11.867Z,11.44
2019-01-25T21:46:40.426Z,11.51
2019-01-25T21:49:06.110Z,11.26
2019-01-25T21:51:32.636Z,11.35
2019-01-25T21:53:58.916Z,11.29
2019-01-25T21:56:25.126Z,11.24
2019-01-25T21:58:51.389Z,11.32
2019-01-25T22:01:17.575Z,11.26
2019-01-25T22:03:43.769Z,11.52
2019-01-25T22:06:09.938Z,11.59
2019-01-25T22:08:36.089Z,11.70
2019-01-25T22:11:02.577Z,11.67
2019-01-25T22:13:28.729Z,11.74
2019-01-25T22:15:54.990Z,11.67
2019-01-25T22:18:21.327Z,11.65
2019-01-25T22:20:47.588Z,11.68
2019-01-25T22:23:13.911Z,11.56
2019-01-25T22:25:40.090Z,11.50
2019-01-25T22:28:06.252Z,11.73
2019-01-25T22:30:35.483Z,11.72
2019-01-25T22:33:01.689Z,11.73
2019-01-25T22:35:27.942Z,11.65
2019-01-25T22:37:54.108Z,11.68
2019-01-25T22:40:24.341Z,11.58
2019-01-25T22:42:50.656Z,11.75
2019-01-25T22:45:19.014Z,11.83
2019-01-25T22:47:45.211Z,11.80
2019-01-25T22:50:14.964Z,11.72
2019-01-25T22:52:41.126Z,11.54
2019-01-25T22:55:10.816Z,11.82
2019-01-25T22:57:37.070Z,11.78
2019-01-25T23:00:06.836Z,11.72
2019-01-25T23:02:33.016Z,11.34
2019-01-25T23:05:14.744Z,11.08
2019-01-25T23:07:41.036Z,11.25
2019-01-25T23:10:09.302Z,11.05
2019-01-25T23:12:35.917Z,10.66
2019-01-25T23:15:03.172Z,10.90
2019-01-25T23:17:29.327Z,10.09
2019-01-25T23:19:55.482Z,10.46
2019-01-25T23:22:21.776Z,10.30
2019-01-25T23:24:47.927Z,10.13
2019-01-25T23:27:14.086Z,10.09
2019-01-25T23:29:40.268Z,8.99
2019-01-25T23:32:06.425Z,8.54
2019-01-25T23:34:32.718Z,8.68
2019-01-25T23:36:58.979Z,8.48
2019-01-25T23:39:25.137Z,7.99
2019-01-25T23:41:51.297Z,7.40
2019-01-25T23:44:17.481Z,7.32
2019-01-25T23:46:43.733Z,7.42
2019-01-25T23:49:09.893Z,7.24
2019-01-25T23:51:36.086Z,6.83
2019-01-25T23:54:02.738Z,7.26
2019-01-25T23:56:28.993Z,7.11
2019-01-25T23:58:55.190Z,7.10
